Terminal Aerodrome Forecast
Issued by NWS

Home | Current Version | Previous Version | Text Only | Print | Product List | Glossary On
Versions: 1 2 3 4 5 6 7 8 9 10 11 12 13 14 15 16 17
000
FTUS41 KBGM 240420 AAA
TAFITH
TAF AMD
KITH 240420Z 2404/2424 31005KT P6SM SCT040
     FM240600 32005KT P6SM OVC025
      TEMPO 2406/2409 SCT025 OVC035
     FM240900 VRB03KT P6SM SCT008 OVC012
      TEMPO 2409/2413 3SM -SHRA BR OVC008
     FM241500 18012G22KT P6SM BKN035=

USA.gov is the U.S. government's official web portal to all federal, state and local government web resources and services.